createdAt,value
2023-05-04T00:00:08.545Z,966.87
2023-05-04T00:01:08.163Z,966.89
2023-05-04T00:02:08.325Z,966.89
2023-05-04T00:03:08.151Z,966.92
2023-05-04T00:04:08.223Z,966.95
2023-05-04T00:05:08.151Z,966.93
2023-05-04T00:06:07.928Z,966.94
2023-05-04T00:07:07.957Z,966.94
2023-05-04T00:08:08.017Z,966.93
2023-05-04T00:09:07.974Z,966.95
2023-05-04T00:10:08.216Z,966.99
2023-05-04T00:11:07.708Z,966.97
2023-05-04T00:12:07.800Z,966.94
2023-05-04T00:13:07.709Z,966.96
2023-05-04T00:14:07.759Z,966.96
2023-05-04T00:15:07.533Z,966.96
2023-05-04T00:16:09.221Z,966.95
2023-05-04T00:17:07.441Z,966.98
2023-05-04T00:18:07.929Z,966.97
2023-05-04T00:19:07.351Z,966.95
2023-05-04T00:20:07.655Z,966.93
2023-05-04T00:21:07.285Z,966.89
2023-05-04T00:22:07.215Z,966.90
2023-05-04T00:23:07.303Z,966.90
2023-05-04T00:24:07.267Z,966.90
2023-05-04T00:25:07.085Z,966.89
2023-05-04T00:26:07.277Z,966.92
2023-05-04T00:27:06.997Z,966.91
2023-05-04T00:28:06.944Z,966.90
2023-05-04T00:29:07.109Z,966.90
2023-05-04T00:30:06.961Z,966.87
2023-05-04T00:31:06.924Z,966.89
2023-05-04T00:32:06.804Z,966.86
2023-05-04T00:33:06.768Z,966.86
2023-05-04T00:34:06.979Z,966.82
2023-05-04T00:35:06.741Z,966.82
2023-05-04T00:36:06.592Z,966.82
2023-05-04T00:37:06.748Z,966.80
2023-05-04T00:38:06.502Z,966.80
2023-05-04T00:39:06.454Z,966.81
2023-05-04T00:40:06.944Z,966.80
2023-05-04T00:41:06.364Z,966.76
2023-05-04T00:42:06.584Z,966.78
2023-05-04T00:43:06.423Z,966.80
2023-05-04T00:44:06.395Z,966.77
2023-05-04T00:45:06.185Z,966.79
2023-05-04T00:46:06.197Z,966.78
2023-05-04T00:47:06.138Z,966.79
2023-05-04T00:48:06.288Z,966.77
2023-05-04T00:49:06.018Z,966.79
2023-05-04T00:50:06.170Z,966.74
2023-05-04T00:51:05.917Z,966.76
2023-05-04T00:52:06.075Z,966.71
2023-05-04T00:53:05.969Z,966.66
2023-05-04T00:54:05.917Z,966.69
2023-05-04T00:55:05.908Z,966.70
2023-05-04T00:56:05.689Z,966.65
2023-05-04T00:57:05.649Z,966.67
2023-05-04T00:58:05.689Z,966.67
2023-05-04T00:59:05.557Z,966.67
2023-05-04T01:00:05.938Z,966.73
2023-05-04T01:01:05.543Z,966.75
2023-05-04T01:02:05.912Z,966.71
2023-05-04T01:03:05.613Z,966.77
2023-05-04T01:04:05.718Z,966.74
2023-05-04T01:05:05.303Z,966.71
2023-05-04T01:06:05.329Z,966.71
2023-05-04T01:07:05.341Z,966.69
2023-05-04T01:08:05.255Z,966.68
2023-05-04T01:09:05.355Z,966.68
2023-05-04T01:10:05.340Z,966.67
2023-05-04T01:11:05.160Z,966.67
2023-05-04T01:12:04.984Z,966.66
2023-05-04T01:13:04.958Z,966.66
2023-05-04T01:14:05.181Z,966.67
2023-05-04T01:15:04.853Z,966.67
2023-05-04T01:16:04.986Z,966.69
2023-05-04T01:17:04.803Z,966.71
2023-05-04T01:18:04.794Z,966.70
2023-05-04T01:19:04.654Z,966.72
2023-05-04T01:20:05.297Z,966.67
2023-05-04T01:21:04.563Z,966.62
2023-05-04T01:22:04.628Z,966.63
2023-05-04T01:23:04.480Z,966.64
2023-05-04T01:24:04.434Z,966.65
2023-05-04T01:25:04.408Z,966.64
2023-05-04T01:26:04.445Z,966.68
2023-05-04T01:27:04.293Z,966.65
2023-05-04T01:28:04.476Z,966.61
2023-05-04T01:29:04.204Z,966.70
2023-05-04T01:30:04.362Z,966.66
2023-05-04T01:31:04.499Z,966.64
2023-05-04T01:32:04.074Z,966.69
2023-05-04T01:33:04.360Z,966.69
2023-05-04T01:34:04.000Z,966.73
2023-05-04T01:35:03.949Z,966.72
2023-05-04T01:36:04.182Z,966.73
2023-05-04T01:37:03.913Z,966.71
2023-05-04T01:38:03.807Z,966.70
2023-05-04T01:39:03.931Z,966.74
2023-05-04T01:40:03.834Z,966.73
2023-05-04T01:41:03.687Z,966.74
2023-05-04T01:42:03.749Z,966.73
2023-05-04T01:43:04.817Z,966.81
2023-05-04T01:44:03.779Z,966.80
2023-05-04T01:45:03.472Z,966.78
2023-05-04T01:46:03.607Z,966.81
2023-05-04T01:47:03.384Z,966.80
2023-05-04T01:48:03.650Z,966.81
2023-05-04T01:49:03.294Z,966.80
2023-05-04T01:50:03.563Z,966.83
2023-05-04T01:51:03.205Z,966.78
2023-05-04T01:52:03.153Z,966.78
2023-05-04T01:53:03.111Z,966.78
2023-05-04T01:54:03.427Z,966.75
2023-05-04T01:55:03.031Z,966.80
2023-05-04T01:56:03.235Z,966.79
2023-05-04T01:57:02.924Z,966.80
2023-05-04T01:58:02.886Z,966.82
2023-05-04T01:59:04.066Z,966.79
2023-05-04T02:00:03.199Z,966.76
2023-05-04T02:01:02.855Z,966.79
2023-05-04T02:02:02.769Z,966.78
2023-05-04T02:03:02.872Z,966.75
2023-05-04T02:04:02.790Z,966.75
2023-05-04T02:05:02.683Z,966.79
2023-05-04T02:06:02.743Z,966.81
2023-05-04T02:07:02.691Z,966.77
2023-05-04T02:08:02.433Z,966.81
2023-05-04T02:09:02.386Z,966.80
2023-05-04T02:10:02.811Z,966.81
2023-05-04T02:11:02.286Z,966.80
2023-05-04T02:12:02.525Z,966.81
2023-05-04T02:13:02.248Z,966.86
2023-05-04T02:14:02.360Z,966.90
2023-05-04T02:15:02.109Z,966.89
2023-05-04T02:16:02.189Z,966.86
2023-05-04T02:17:02.019Z,966.91
2023-05-04T02:18:02.599Z,966.89
2023-05-04T02:19:01.940Z,966.86
2023-05-04T02:20:01.973Z,966.86
2023-05-04T02:21:01.841Z,966.83
2023-05-04T02:22:01.999Z,966.85
2023-05-04T02:23:01.756Z,966.83
2023-05-04T02:24:01.798Z,966.86
2023-05-04T02:25:01.851Z,966.84
2023-05-04T02:26:01.622Z,966.81
2023-05-04T02:27:01.822Z,966.82
2023-05-04T02:28:01.519Z,966.82
2023-05-04T02:29:01.639Z,966.80
2023-05-04T02:30:01.493Z,966.80
2023-05-04T02:31:01.643Z,966.84
2023-05-04T02:32:01.400Z,966.79
2023-05-04T02:33:01.548Z,966.79
2023-05-04T02:34:01.253Z,966.76
2023-05-04T02:35:01.474Z,966.78
2023-05-04T02:36:01.167Z,966.78
2023-05-04T02:37:01.486Z,966.76
2023-05-04T02:38:01.060Z,966.75
2023-05-04T02:39:01.311Z,966.79
2023-05-04T02:40:00.972Z,966.82
2023-05-04T02:41:01.112Z,966.79
2023-05-04T02:42:00.887Z,966.80
2023-05-04T02:43:00.838Z,966.81
2023-05-04T02:44:00.986Z,966.82
2023-05-04T02:45:00.926Z,966.83
2023-05-04T02:46:00.750Z,966.82
2023-05-04T02:47:00.764Z,966.83
2023-05-04T02:48:00.674Z,966.83
2023-05-04T02:49:00.567Z,966.84
2023-05-04T02:50:00.539Z,966.85
2023-05-04T02:51:00.974Z,966.85
2023-05-04T02:52:00.435Z,966.86
2023-05-04T02:53:00.595Z,966.86
2023-05-04T02:54:00.390Z,966.88
2023-05-04T02:55:00.388Z,966.86
2023-05-04T02:56:00.249Z,966.84
2023-05-04T02:57:00.402Z,966.83
2023-05-04T02:58:00.163Z,966.83
2023-05-04T02:59:00.222Z,966.80
2023-05-04T03:00:00.445Z,966.79
2023-05-04T03:01:00.057Z,966.80
2023-05-04T03:02:00.236Z,966.77
2023-05-04T03:03:00.189Z,966.75
2023-05-04T03:04:00.093Z,966.75
2023-05-04T03:04:59.881Z,966.71
2023-05-04T03:05:59.801Z,966.70
2023-05-04T03:06:59.882Z,966.73
2023-05-04T03:07:59.708Z,966.70
2023-05-04T03:08:59.878Z,966.75
2023-05-04T03:09:59.610Z,966.73
2023-05-04T03:10:59.948Z,966.71
2023-05-04T03:11:59.518Z,966.71
2023-05-04T03:12:59.718Z,966.74
2023-05-04T03:13:59.459Z,966.73
2023-05-04T03:14:59.518Z,966.73
2023-05-04T03:15:59.356Z,966.71
2023-05-04T03:16:59.312Z,966.77
2023-05-04T03:17:59.314Z,966.74
2023-05-04T03:18:59.337Z,966.80
2023-05-04T03:19:59.156Z,966.76
2023-05-04T03:20:59.355Z,966.74
2023-05-04T03:21:59.067Z,966.77
2023-05-04T03:22:59.377Z,966.75
2023-05-04T03:23:58.981Z,966.75
2023-05-04T03:24:59.184Z,966.78
2023-05-04T03:25:58.888Z,966.77
2023-05-04T03:26:58.985Z,966.76
2023-05-04T03:27:58.991Z,966.76
2023-05-04T03:28:58.766Z,966.79
2023-05-04T03:29:58.802Z,966.83
2023-05-04T03:30:58.655Z,966.83
2023-05-04T03:31:58.851Z,966.81
2023-05-04T03:32:58.639Z,966.77
2023-05-04T03:33:58.518Z,966.78
2023-05-04T03:34:59.060Z,966.78
2023-05-04T03:35:58.432Z,966.79
2023-05-04T03:36:58.651Z,966.75
2023-05-04T03:37:58.353Z,966.78
2023-05-04T03:38:58.292Z,966.80
2023-05-04T03:39:58.245Z,966.77
2023-05-04T03:40:58.476Z,966.79
2023-05-04T03:41:58.155Z,966.78
2023-05-04T03:42:58.303Z,966.80
2023-05-04T03:43:58.069Z,966.79
2023-05-04T03:44:58.027Z,966.69
2023-05-04T03:45:58.024Z,966.72
2023-05-04T03:46:58.328Z,966.72
2023-05-04T03:47:57.916Z,966.76
2023-05-04T03:48:58.151Z,966.73
2023-05-04T03:49:57.793Z,966.69
2023-05-04T03:50:57.744Z,966.70
2023-05-04T03:51:57.944Z,966.72
2023-05-04T03:52:57.759Z,966.72
2023-05-04T03:53:57.756Z,966.71
2023-05-04T03:54:57.559Z,966.72
2023-05-04T03:55:57.514Z,966.74
2023-05-04T03:56:57.472Z,966.68
2023-05-04T03:57:57.576Z,966.69
2023-05-04T03:58:57.654Z,966.69
2023-05-04T03:59:57.943Z,966.67
2023-05-04T04:00:57.277Z,966.72
2023-05-04T04:01:57.324Z,966.70
2023-05-04T04:02:57.656Z,966.71
2023-05-04T04:03:57.264Z,966.68
2023-05-04T04:04:57.222Z,966.72
2023-05-04T04:05:57.061Z,966.75
2023-05-04T04:06:57.236Z,966.68
2023-05-04T04:07:56.966Z,966.72
2023-05-04T04:08:57.045Z,966.69
2023-05-04T04:09:56.871Z,966.72
2023-05-04T04:10:57.056Z,966.73
2023-05-04T04:11:56.777Z,966.72
2023-05-04T04:12:56.769Z,966.71
2023-05-04T04:13:56.879Z,966.70
2023-05-04T04:14:56.947Z,966.72
2023-05-04T04:15:56.909Z,966.74
2023-05-04T04:16:56.548Z,966.72
2023-05-04T04:17:56.754Z,966.72
2023-05-04T04:18:56.466Z,966.75
2023-05-04T04:19:56.712Z,966.75
2023-05-04T04:20:56.388Z,966.75
2023-05-04T04:21:56.527Z,966.79
2023-05-04T04:22:56.587Z,966.80
2023-05-04T04:23:56.242Z,966.77
2023-05-04T04:24:56.184Z,966.76
2023-05-04T04:25:56.356Z,966.73
2023-05-04T04:26:56.110Z,966.71
2023-05-04T04:27:56.158Z,966.73
2023-05-04T04:28:56.013Z,966.70
2023-05-04T04:29:55.957Z,966.71
2023-05-04T04:30:56.037Z,966.76
2023-05-04T04:31:56.156Z,966.77
2023-05-04T04:32:55.849Z,966.77
2023-05-04T04:33:56.008Z,966.80
2023-05-04T04:34:55.868Z,966.81
2023-05-04T04:35:55.678Z,966.85
2023-05-04T04:36:55.833Z,966.82
2023-05-04T04:37:55.589Z,966.84
2023-05-04T04:38:55.846Z,966.86
2023-05-04T04:39:55.508Z,966.88
2023-05-04T04:40:55.518Z,966.88
2023-05-04T04:41:55.417Z,966.90
2023-05-04T04:42:55.665Z,966.90
2023-05-04T04:43:55.324Z,966.92
2023-05-04T04:44:55.468Z,966.95
2023-05-04T04:45:55.229Z,966.96
2023-05-04T04:46:55.419Z,966.98
2023-05-04T04:47:55.147Z,967.02
2023-05-04T04:48:55.290Z,966.98
2023-05-04T04:49:55.040Z,967.02
2023-05-04T04:50:55.314Z,966.98
2023-05-04T04:51:54.945Z,966.99
2023-05-04T04:52:54.903Z,967.07
2023-05-04T04:53:55.123Z,967.07
2023-05-04T04:54:54.805Z,967.07
2023-05-04T04:55:55.139Z,967.08
2023-05-04T04:56:54.725Z,967.06
2023-05-04T04:57:54.675Z,967.09
2023-05-04T04:58:54.620Z,967.04
2023-05-04T04:59:54.763Z,967.03
2023-05-04T05:00:54.585Z,967.08
2023-05-04T05:01:54.787Z,967.06
2023-05-04T05:02:54.711Z,967.05
2023-05-04T05:03:54.389Z,967.05
2023-05-04T05:04:54.664Z,967.03
2023-05-04T05:05:54.303Z,967.06
2023-05-04T05:06:54.406Z,967.03
2023-05-04T05:07:54.209Z,967.06
2023-05-04T05:08:54.183Z,967.05
2023-05-04T05:09:54.117Z,967.08
2023-05-04T05:10:54.223Z,967.07
2023-05-04T05:11:54.031Z,967.07
2023-05-04T05:12:54.473Z,967.08
2023-05-04T05:13:53.942Z,967.05
2023-05-04T05:14:53.933Z,967.10
2023-05-04T05:15:54.061Z,967.08
2023-05-04T05:16:53.807Z,967.05
2023-05-04T05:17:54.174Z,967.05
2023-05-04T05:18:53.739Z,967.07
2023-05-04T05:19:53.886Z,967.07
2023-05-04T05:20:53.616Z,967.11
2023-05-04T05:21:53.690Z,967.09
2023-05-04T05:22:53.536Z,967.12
2023-05-04T05:23:53.707Z,967.10
2023-05-04T05:24:53.765Z,967.08
2023-05-04T05:25:53.386Z,967.11
2023-05-04T05:26:53.346Z,967.06
2023-05-04T05:27:53.530Z,967.05
2023-05-04T05:28:53.252Z,967.05
2023-05-04T05:29:53.229Z,967.05
2023-05-04T05:30:54.415Z,967.04
2023-05-04T05:31:53.115Z,967.05
2023-05-04T05:32:53.407Z,967.04
2023-05-04T05:33:53.029Z,967.07
2023-05-04T05:34:53.385Z,967.08
2023-05-04T05:35:52.945Z,967.08
2023-05-04T05:36:53.190Z,967.07
2023-05-04T05:37:52.844Z,967.13
2023-05-04T05:38:52.998Z,967.12
2023-05-04T05:39:52.755Z,967.14
2023-05-04T05:40:52.745Z,967.16
2023-05-04T05:41:52.713Z,967.15
2023-05-04T05:42:52.616Z,967.16
2023-05-04T05:43:53.750Z,967.24
2023-05-04T05:44:52.523Z,967.21
2023-05-04T05:45:52.586Z,967.17
2023-05-04T05:46:52.606Z,967.18
2023-05-04T05:47:52.548Z,967.23
2023-05-04T05:48:52.560Z,967.22
2023-05-04T05:49:52.348Z,967.23
2023-05-04T05:50:52.368Z,967.23
2023-05-04T05:51:52.209Z,967.25
2023-05-04T05:52:52.391Z,967.29
2023-05-04T05:53:52.238Z,967.26
2023-05-04T05:54:52.076Z,967.25
2023-05-04T05:55:52.211Z,967.29
2023-05-04T05:56:51.980Z,967.32
2023-05-04T05:57:52.013Z,967.26
2023-05-04T05:58:51.949Z,967.29
2023-05-04T05:59:53.105Z,967.27
2023-05-04T06:03:48.809Z,967.22
2023-05-04T06:04:48.317Z,967.19
2023-05-04T06:05:48.233Z,967.21
2023-05-04T06:06:48.204Z,967.17
2023-05-04T06:07:48.198Z,967.19
2023-05-04T06:08:48.176Z,967.17
2023-05-04T06:09:48.234Z,967.19
2023-05-04T06:10:48.046Z,967.21
2023-05-04T06:11:47.971Z,967.22
2023-05-04T06:12:48.095Z,967.20
2023-05-04T06:13:47.868Z,967.21
2023-05-04T06:14:48.033Z,967.17
2023-05-04T06:15:47.823Z,967.22
2023-05-04T06:16:48.060Z,967.18
2023-05-04T06:17:47.719Z,967.18
2023-05-04T06:18:47.864Z,967.19
2023-05-04T06:19:50.250Z,967.17
2023-05-04T06:20:47.679Z,967.20
2023-05-04T06:21:47.511Z,967.18
2023-05-04T06:22:47.465Z,967.17
2023-05-04T06:23:47.421Z,967.22
2023-05-04T06:24:47.495Z,967.22
2023-05-04T06:25:47.544Z,967.18
2023-05-04T06:26:47.516Z,967.22
2023-05-04T06:27:47.245Z,967.19
2023-05-04T06:28:47.192Z,967.22
2023-05-04T06:29:47.147Z,967.17
2023-05-04T06:30:47.137Z,967.18
2023-05-04T06:31:48.380Z,967.20
2023-05-04T06:32:47.215Z,967.21
2023-05-04T06:33:46.973Z,967.23
2023-05-04T06:34:46.915Z,967.24
2023-05-04T06:35:46.978Z,967.24
2023-05-04T06:36:46.852Z,967.25
2023-05-04T06:37:46.986Z,967.26
2023-05-04T06:38:46.746Z,967.24
2023-05-04T06:39:46.839Z,967.24
2023-05-04T06:40:46.858Z,967.22
2023-05-04T06:41:46.807Z,967.19
2023-05-04T06:42:46.594Z,967.20
2023-05-04T06:43:46.616Z,967.18
2023-05-04T06:44:46.480Z,967.23
2023-05-04T06:45:46.501Z,967.20
2023-05-04T06:46:46.388Z,967.21
2023-05-04T06:47:46.740Z,967.21
2023-05-04T06:48:46.299Z,967.16
2023-05-04T06:49:46.464Z,967.20
2023-05-04T06:50:46.241Z,967.15
2023-05-04T06:51:46.167Z,967.12
2023-05-04T06:52:46.123Z,967.10
2023-05-04T06:53:46.278Z,967.06
2023-05-04T06:54:46.036Z,967.09
2023-05-04T06:55:46.096Z,967.05
2023-05-04T06:56:46.166Z,967.05
2023-05-04T06:57:46.107Z,967.06
2023-05-04T06:58:45.867Z,967.08
2023-05-04T06:59:45.910Z,967.09
2023-05-04T07:00:45.805Z,967.10
2023-05-04T07:01:45.974Z,967.10
2023-05-04T07:02:45.752Z,967.09
2023-05-04T07:03:45.842Z,967.11
2023-05-04T07:04:45.753Z,967.12
2023-05-04T07:05:45.552Z,967.11
2023-05-04T07:06:45.554Z,967.12
2023-05-04T07:07:45.471Z,967.11
2023-05-04T07:08:45.458Z,967.06
2023-05-04T07:09:45.580Z,967.06
2023-05-04T07:10:45.428Z,967.10
2023-05-04T07:11:45.387Z,967.09
2023-05-04T07:12:45.297Z,967.09
2023-05-04T07:13:45.408Z,967.11
2023-05-04T07:14:45.158Z,967.12
2023-05-04T07:15:45.212Z,967.13
2023-05-04T07:16:45.166Z,967.14
2023-05-04T07:17:46.315Z,967.13
2023-05-04T07:18:53.785Z,967.10
2023-05-04T07:19:45.034Z,967.10
2023-05-04T07:20:44.912Z,967.11
2023-05-04T07:21:45.052Z,967.09
2023-05-04T07:22:44.813Z,967.06
2023-05-04T07:23:45.187Z,967.07
2023-05-04T07:24:45.934Z,967.06
2023-05-04T07:25:44.755Z,967.06
2023-05-04T07:26:44.633Z,967.05
2023-05-04T07:27:44.895Z,967.07
2023-05-04T07:28:44.546Z,967.02
2023-05-04T07:29:44.694Z,967.06
2023-05-04T07:30:44.465Z,967.02
2023-05-04T07:31:44.511Z,967.00
2023-05-04T07:32:44.413Z,966.99
2023-05-04T07:33:45.483Z,966.99
2023-05-04T07:34:46.242Z,967.00
2023-05-04T07:35:44.644Z,966.98
2023-05-04T07:36:44.202Z,966.98
2023-05-04T07:37:44.164Z,966.94
2023-05-04T07:38:46.900Z,966.99
2023-05-04T07:39:44.202Z,967.00
2023-05-04T07:40:46.107Z,966.97
2023-05-04T07:41:44.020Z,966.92
2023-05-04T07:42:44.588Z,966.95
2023-05-04T07:43:43.905Z,966.92
2023-05-04T07:44:44.027Z,966.91
2023-05-04T07:45:44.213Z,966.91
2023-05-04T07:46:45.122Z,966.92
2023-05-04T07:47:43.777Z,966.94
2023-05-04T07:48:43.860Z,966.91
2023-05-04T07:49:43.712Z,966.94
2023-05-04T07:50:44.757Z,966.96
2023-05-04T07:51:43.799Z,966.93
2023-05-04T07:52:45.735Z,966.91
2023-05-04T07:53:43.486Z,966.90
2023-05-04T07:54:43.442Z,966.94
2023-05-04T07:55:43.762Z,966.91
2023-05-04T07:56:43.348Z,966.94
2023-05-04T07:57:43.365Z,966.95
2023-05-04T07:58:43.266Z,966.93
2023-05-04T07:59:43.228Z,966.94
2023-05-04T08:00:43.189Z,966.96
2023-05-04T08:01:44.209Z,966.92
2023-05-04T08:02:43.669Z,966.92
2023-05-04T08:03:45.263Z,966.95
2023-05-04T08:04:43.046Z,966.99
2023-05-04T08:05:42.990Z,966.99
2023-05-04T08:06:43.234Z,966.95
2023-05-04T08:07:43.041Z,967.01
2023-05-04T08:08:42.842Z,967.03
2023-05-04T08:09:43.044Z,967.02
2023-05-04T08:10:42.756Z,967.04
2023-05-04T08:11:42.756Z,967.07
2023-05-04T08:12:43.940Z,967.01
2023-05-04T08:13:42.634Z,967.05
2023-05-04T08:14:44.721Z,967.08
2023-05-04T08:15:42.550Z,967.08
2023-05-04T08:16:42.707Z,967.05
2023-05-04T08:17:42.815Z,967.06
2023-05-04T08:18:43.542Z,967.07
2023-05-04T08:19:42.399Z,967.11
2023-05-04T08:20:44.728Z,967.09
2023-05-04T08:21:42.323Z,967.07
2023-05-04T08:22:43.346Z,967.10
2023-05-04T08:23:42.226Z,967.10
2023-05-04T08:24:42.349Z,967.09
2023-05-04T08:25:42.168Z,967.10
2023-05-04T08:26:47.155Z,967.09
2023-05-04T08:27:42.082Z,967.08
2023-05-04T08:28:42.032Z,967.04
2023-05-04T08:29:41.990Z,967.08
2023-05-04T08:30:43.204Z,967.10
2023-05-04T08:31:41.976Z,967.06
2023-05-04T08:32:42.231Z,967.03
2023-05-04T08:33:41.836Z,967.07
2023-05-04T08:34:41.813Z,967.07
2023-05-04T08:35:41.759Z,967.11
2023-05-04T08:36:43.864Z,967.08
2023-05-04T08:37:41.687Z,967.11
2023-05-04T08:38:42.259Z,967.16
2023-05-04T08:39:42.309Z,967.14
2023-05-04T08:40:41.567Z,967.19
2023-05-04T08:41:41.653Z,967.19
2023-05-04T08:42:41.490Z,967.17
2023-05-04T08:43:41.677Z,967.20
2023-05-04T08:44:42.746Z,967.22
2023-05-04T08:45:41.469Z,967.28
2023-05-04T08:46:41.330Z,967.25
2023-05-04T08:47:42.524Z,967.25
2023-05-04T08:48:41.263Z,967.25
2023-05-04T08:49:41.303Z,967.28
2023-05-04T08:50:41.358Z,967.26
2023-05-04T08:51:41.157Z,967.32
2023-05-04T08:52:41.112Z,967.36
2023-05-04T08:53:41.330Z,967.39
2023-05-04T08:54:41.034Z,967.38
2023-05-04T08:55:42.163Z,967.36
2023-05-04T08:56:41.232Z,967.36
2023-05-04T08:57:40.926Z,967.40
2023-05-04T08:58:40.955Z,967.36
2023-05-04T08:59:40.842Z,967.41
2023-05-04T09:00:41.010Z,967.39
2023-05-04T09:01:40.860Z,967.39
2023-05-04T09:02:40.880Z,967.39
2023-05-04T09:03:40.809Z,967.41
2023-05-04T09:04:40.805Z,967.39
2023-05-04T09:05:40.628Z,967.43
2023-05-04T09:06:40.816Z,967.35
2023-05-04T09:07:40.564Z,967.39
2023-05-04T09:08:40.512Z,967.43
2023-05-04T09:09:40.482Z,967.35
2023-05-04T09:10:41.067Z,967.36
2023-05-04T09:11:40.409Z,967.40
2023-05-04T09:12:40.667Z,967.40
2023-05-04T09:13:40.344Z,967.37
2023-05-04T09:14:40.309Z,967.33
2023-05-04T09:15:40.806Z,967.33
2023-05-04T09:16:40.254Z,967.30
2023-05-04T09:17:50.987Z,967.31
2023-05-04T09:18:40.329Z,967.29
2023-05-04T09:19:41.108Z,967.31
2023-05-04T09:20:40.125Z,967.29
2023-05-04T09:21:41.533Z,967.33
2023-05-04T09:22:40.077Z,967.31
2023-05-04T09:23:40.135Z,967.29
2023-05-04T09:24:39.973Z,967.28
2023-05-04T09:25:39.942Z,967.27
2023-05-04T09:26:40.195Z,967.28
2023-05-04T09:27:40.141Z,967.28
2023-05-04T09:28:39.869Z,967.25
2023-05-04T09:29:41.211Z,967.24
2023-05-04T09:30:39.775Z,967.23
2023-05-04T09:31:39.789Z,967.23
2023-05-04T09:32:40.010Z,967.28
2023-05-04T09:33:39.684Z,967.30
2023-05-04T09:34:41.834Z,967.30
2023-05-04T09:35:39.651Z,967.31
2023-05-04T09:36:39.795Z,967.29
2023-05-04T09:37:39.858Z,967.34
2023-05-04T09:38:39.608Z,967.31
2023-05-04T09:39:39.521Z,967.27
2023-05-04T09:40:39.827Z,967.30
2023-05-04T09:41:39.447Z,967.32
2023-05-04T09:42:39.401Z,967.28
2023-05-04T09:43:39.382Z,967.30
2023-05-04T09:44:40.469Z,967.30
2023-05-04T09:45:39.320Z,967.28
2023-05-04T09:46:39.500Z,967.26
2023-05-04T09:47:39.322Z,967.20
2023-05-04T09:48:39.225Z,967.23
2023-05-04T09:49:39.207Z,967.19
2023-05-04T09:50:39.284Z,967.23
2023-05-04T09:51:39.160Z,967.22
2023-05-04T09:52:39.511Z,967.21
2023-05-04T09:53:39.094Z,967.17
2023-05-04T09:54:39.047Z,967.18
2023-05-04T09:55:39.115Z,967.19
2023-05-04T09:56:38.996Z,967.22
2023-05-04T09:57:39.135Z,967.24
2023-05-04T09:58:41.252Z,967.22
2023-05-04T09:59:39.150Z,967.16
2023-05-04T10:00:38.880Z,967.20
2023-05-04T10:01:39.060Z,967.24
2023-05-04T10:02:38.924Z,967.22
2023-05-04T10:03:38.972Z,967.17
2023-05-04T10:04:38.796Z,967.21
2023-05-04T10:05:38.806Z,967.16
2023-05-04T10:06:38.720Z,967.17
2023-05-04T10:07:59.910Z,967.19
2023-05-04T10:08:38.652Z,967.12
2023-05-04T10:09:38.631Z,967.18
2023-05-04T10:10:39.028Z,967.17
2023-05-04T10:11:38.571Z,967.18
2023-05-04T10:12:38.672Z,967.16
2023-05-04T10:13:38.535Z,967.15
2023-05-04T10:14:38.646Z,967.15
2023-05-04T10:15:38.465Z,967.13
2023-05-04T10:16:39.653Z,967.15
2023-05-04T10:17:38.412Z,967.13
2023-05-04T10:18:39.593Z,967.09
2023-05-04T10:19:38.625Z,967.09
2023-05-04T10:20:38.585Z,967.09
2023-05-04T10:21:38.294Z,967.06
2023-05-04T10:22:39.416Z,967.07
2023-05-04T10:23:38.245Z,967.03
2023-05-04T10:24:38.413Z,967.03
2023-05-04T10:25:38.213Z,967.02
2023-05-04T10:26:38.424Z,966.98
2023-05-04T10:27:38.135Z,967.02
2023-05-04T10:28:39.265Z,967.02
2023-05-04T10:29:38.294Z,967.00
2023-05-04T10:30:38.246Z,966.95
2023-05-04T10:31:38.126Z,966.96
2023-05-04T10:32:38.305Z,966.90
2023-05-04T10:33:37.972Z,966.92
2023-05-04T10:34:39.146Z,966.93
2023-05-04T10:35:37.927Z,966.92
2023-05-04T10:36:38.140Z,966.94
2023-05-04T10:37:40.199Z,966.92
2023-05-04T10:38:38.920Z,966.96
2023-05-04T10:39:37.848Z,966.95
2023-05-04T10:40:37.833Z,966.90
2023-05-04T10:41:37.754Z,966.94
2023-05-04T10:42:40.180Z,966.93
2023-05-04T10:43:37.705Z,966.87
2023-05-04T10:44:37.942Z,966.90
2023-05-04T10:45:37.730Z,966.90
2023-05-04T10:46:37.629Z,966.92
2023-05-04T10:47:37.703Z,966.87
2023-05-04T10:48:38.996Z,966.84
2023-05-04T10:49:37.544Z,966.92
2023-05-04T10:50:38.603Z,966.91
2023-05-04T10:51:48.611Z,966.88
2023-05-04T10:52:37.556Z,966.86
2023-05-04T10:53:38.628Z,966.87
2023-05-04T10:54:37.420Z,966.89
2023-05-04T10:55:37.616Z,966.87
2023-05-04T10:56:40.953Z,966.89
2023-05-04T10:57:38.446Z,966.87
2023-05-04T10:58:37.304Z,966.87
2023-05-04T10:59:37.455Z,966.81
2023-05-04T11:00:37.247Z,966.78
2023-05-04T11:01:37.609Z,966.81
2023-05-04T11:02:37.358Z,966.81
2023-05-04T11:03:37.320Z,966.79
2023-05-04T11:04:37.155Z,966.76
2023-05-04T11:05:38.301Z,966.75
2023-05-04T11:06:38.938Z,966.70
2023-05-04T11:07:38.355Z,966.75
2023-05-04T11:08:37.040Z,966.73
2023-05-04T11:09:37.010Z,966.74
2023-05-04T11:10:36.992Z,966.71
2023-05-04T11:11:37.118Z,966.67
2023-05-04T11:12:37.012Z,966.70
2023-05-04T11:13:37.138Z,966.67
2023-05-04T11:14:36.902Z,966.66
2023-05-04T11:15:38.027Z,966.65
2023-05-04T11:16:37.999Z,966.61
2023-05-04T11:17:36.835Z,966.60
2023-05-04T11:18:39.010Z,966.58
2023-05-04T11:19:36.755Z,966.57
2023-05-04T11:20:36.733Z,966.52
2023-05-04T11:21:36.830Z,966.54
2023-05-04T11:22:36.795Z,966.51
2023-05-04T11:23:36.763Z,966.48
2023-05-04T11:24:36.808Z,966.45
2023-05-04T11:25:36.609Z,966.50
2023-05-04T11:26:36.590Z,966.42
2023-05-04T11:27:36.552Z,966.42
2023-05-04T11:28:37.658Z,966.43
2023-05-04T11:29:36.698Z,966.40
2023-05-04T11:30:36.645Z,966.37
2023-05-04T11:31:36.493Z,966.33
2023-05-04T11:32:36.462Z,966.34
2023-05-04T11:33:36.665Z,966.29
2023-05-04T11:34:36.376Z,966.27
2023-05-04T11:35:36.684Z,966.27
2023-05-04T11:36:36.333Z,966.18
2023-05-04T11:37:36.320Z,966.13
2023-05-04T11:38:36.303Z,966.15
2023-05-04T11:39:36.518Z,966.12
2023-05-04T11:40:36.252Z,966.09
2023-05-04T11:41:36.320Z,966.13
2023-05-04T11:42:36.176Z,966.10
2023-05-04T11:43:36.388Z,966.10
2023-05-04T11:44:36.333Z,966.10
2023-05-04T11:45:36.145Z,966.09
2023-05-04T11:46:36.404Z,966.08
2023-05-04T11:47:36.061Z,966.13
2023-05-04T11:48:36.168Z,966.13
2023-05-04T11:49:36.002Z,966.07
2023-05-04T11:50:36.377Z,966.07
2023-05-04T11:51:36.007Z,966.03
2023-05-04T11:52:36.196Z,966.00
2023-05-04T11:53:35.905Z,965.97
2023-05-04T11:54:35.880Z,965.97
2023-05-04T11:55:35.863Z,965.93
2023-05-04T11:56:36.032Z,965.93
2023-05-04T11:57:36.074Z,965.91
2023-05-04T11:58:36.050Z,965.89
2023-05-04T11:59:35.757Z,965.86
2023-05-04T12:00:35.728Z,965.89
2023-05-04T12:01:35.847Z,965.85
2023-05-04T12:02:35.797Z,965.83
2023-05-04T12:03:47.940Z,965.84
2023-05-04T12:04:35.637Z,965.83
2023-05-04T12:05:35.936Z,965.82
2023-05-04T12:06:35.902Z,965.81
2023-05-04T12:07:35.558Z,965.79
2023-05-04T12:08:35.694Z,965.80
2023-05-04T12:09:35.587Z,965.83
2023-05-04T12:10:35.711Z,965.80
2023-05-04T12:11:35.478Z,965.82
2023-05-04T12:12:35.453Z,965.80
2023-05-04T12:13:35.529Z,965.84
2023-05-04T12:14:35.386Z,965.80
2023-05-04T12:15:35.784Z,965.77
2023-05-04T12:16:35.355Z,965.75
2023-05-04T12:17:35.319Z,965.76
2023-05-04T12:18:35.291Z,965.74
2023-05-04T12:19:35.569Z,965.76
2023-05-04T12:20:35.267Z,965.70
2023-05-04T12:21:35.382Z,965.77
2023-05-04T12:22:35.217Z,965.76
2023-05-04T12:23:35.170Z,965.76
2023-05-04T12:24:35.455Z,965.76
2023-05-04T12:25:39.128Z,965.73
2023-05-04T12:26:35.107Z,965.75
2023-05-04T12:27:35.221Z,965.72
2023-05-04T12:28:35.066Z,965.70
2023-05-04T12:29:35.046Z,965.65
2023-05-04T12:30:35.038Z,965.67